sensor_id;sensor_type;location;lat;lon;timestamp;temperature;humidity
52275;DHT22;38228;50.940;4.024;2023-07-20T00:02:15;17.30;99.90
52275;DHT22;38228;50.940;4.024;2023-07-20T00:04:41;17.30;99.90
52275;DHT22;38228;50.940;4.024;2023-07-20T00:07:07;17.30;99.90
52275;DHT22;38228;50.940;4.024;2023-07-20T00:09:32;17.20;99.90
52275;DHT22;38228;50.940;4.024;2023-07-20T00:11:58;17.20;99.90
52275;DHT22;38228;50.940;4.024;2023-07-20T00:14:25;17.30;99.90
52275;DHT22;38228;50.940;4.024;2023-07-20T00:16:51;17.40;99.90
52275;DHT22;38228;50.940;4.024;2023-07-20T00:19:25;17.30;99.90
52275;DHT22;38228;50.940;4.024;2023-07-20T00:21:51;17.30;99.90
52275;DHT22;38228;50.940;4.024;2023-07-20T00:24:17;17.30;99.90
52275;DHT22;38228;50.940;4.024;2023-07-20T00:26:43;17.40;99.90
52275;DHT22;38228;50.940;4.024;2023-07-20T00:29:09;17.40;99.90
52275;DHT22;38228;50.940;4.024;2023-07-20T00:31:35;17.40;99.90
52275;DHT22;38228;50.940;4.024;2023-07-20T00:34:03;17.30;99.90
52275;DHT22;38228;50.940;4.024;2023-07-20T00:36:29;17.30;99.90
52275;DHT22;38228;50.940;4.024;2023-07-20T00:38:54;17.40;99.90
52275;DHT22;38228;50.940;4.024;2023-07-20T00:41:20;17.60;99.90
52275;DHT22;38228;50.940;4.024;2023-07-20T00:43:46;17.60;99.90
52275;DHT22;38228;50.940;4.024;2023-07-20T00:46:12;17.60;99.90
52275;DHT22;38228;50.940;4.024;2023-07-20T00:48:40;17.50;99.90
52275;DHT22;38228;50.940;4.024;2023-07-20T00:51:06;17.50;99.90
52275;DHT22;38228;50.940;4.024;2023-07-20T00:53:32;17.30;99.90
52275;DHT22;38228;50.940;4.024;2023-07-20T00:55:58;17.10;99.90
52275;DHT22;38228;50.940;4.024;2023-07-20T00:58:24;17.00;99.90
52275;DHT22;38228;50.940;4.024;2023-07-20T01:00:50;16.90;99.90
52275;DHT22;38228;50.940;4.024;2023-07-20T01:03:16;16.70;99.90
52275;DHT22;38228;50.940;4.024;2023-07-20T01:05:54;16.70;99.90
52275;DHT22;38228;50.940;4.024;2023-07-20T01:10:57;16.60;99.90
52275;DHT22;38228;50.940;4.024;2023-07-20T01:13:25;16.50;99.90
52275;DHT22;38228;50.940;4.024;2023-07-20T01:16:00;16.50;99.90
52275;DHT22;38228;50.940;4.024;2023-07-20T01:18:26;16.40;99.90
52275;DHT22;38228;50.940;4.024;2023-07-20T01:20:56;16.40;99.90
52275;DHT22;38228;50.940;4.024;2023-07-20T01:31:33;16.80;99.90
52275;DHT22;38228;50.940;4.024;2023-07-20T01:34:01;16.70;99.90
52275;DHT22;38228;50.940;4.024;2023-07-20T01:36:31;16.80;99.90
52275;DHT22;38228;50.940;4.024;2023-07-20T01:38:58;16.80;99.90
52275;DHT22;38228;50.940;4.024;2023-07-20T01:41:24;16.80;99.90
52275;DHT22;38228;50.940;4.024;2023-07-20T01:43:50;17.00;99.90
52275;DHT22;38228;50.940;4.024;2023-07-20T01:46:16;17.00;99.90
52275;DHT22;38228;50.940;4.024;2023-07-20T01:48:42;16.90;99.90
52275;DHT22;38228;50.940;4.024;2023-07-20T01:51:08;16.60;99.90
52275;DHT22;38228;50.940;4.024;2023-07-20T01:53:34;16.50;99.90
52275;DHT22;38228;50.940;4.024;2023-07-20T01:56:00;16.30;99.90
52275;DHT22;38228;50.940;4.024;2023-07-20T01:58:25;16.30;99.90
52275;DHT22;38228;50.940;4.024;2023-07-20T02:00:51;16.30;99.90
52275;DHT22;38228;50.940;4.024;2023-07-20T02:03:17;16.30;99.90
52275;DHT22;38228;50.940;4.024;2023-07-20T02:05:43;16.30;99.90
52275;DHT22;38228;50.940;4.024;2023-07-20T02:08:09;16.20;99.90
52275;DHT22;38228;50.940;4.024;2023-07-20T02:10:35;16.20;99.90
52275;DHT22;38228;50.940;4.024;2023-07-20T02:13:01;16.20;99.90
52275;DHT22;38228;50.940;4.024;2023-07-20T02:15:26;16.10;99.90
52275;DHT22;38228;50.940;4.024;2023-07-20T02:17:53;16.10;99.90
52275;DHT22;38228;50.940;4.024;2023-07-20T02:20:19;16.10;99.90
52275;DHT22;38228;50.940;4.024;2023-07-20T02:22:45;16.10;99.90
52275;DHT22;38228;50.940;4.024;2023-07-20T02:25:10;16.10;99.90
52275;DHT22;38228;50.940;4.024;2023-07-20T02:27:37;16.00;99.90
52275;DHT22;38228;50.940;4.024;2023-07-20T02:30:03;16.00;99.90
52275;DHT22;38228;50.940;4.024;2023-07-20T02:32:30;16.00;99.90
52275;DHT22;38228;50.940;4.024;2023-07-20T02:34:55;16.00;99.90
52275;DHT22;38228;50.940;4.024;2023-07-20T02:37:21;15.90;99.90
52275;DHT22;38228;50.940;4.024;2023-07-20T02:39:47;15.80;99.90
52275;DHT22;38228;50.940;4.024;2023-07-20T02:42:13;15.80;99.90
52275;DHT22;38228;50.940;4.024;2023-07-20T02:44:38;15.90;99.90
52275;DHT22;38228;50.940;4.024;2023-07-20T02:47:04;15.80;99.90
52275;DHT22;38228;50.940;4.024;2023-07-20T02:49:30;15.70;99.90
52275;DHT22;38228;50.940;4.024;2023-07-20T02:51:56;15.70;99.90
52275;DHT22;38228;50.940;4.024;2023-07-20T02:54:22;15.80;99.90
52275;DHT22;38228;50.940;4.024;2023-07-20T02:56:47;15.90;99.90
52275;DHT22;38228;50.940;4.024;2023-07-20T02:59:13;16.10;99.90
52275;DHT22;38228;50.940;4.024;2023-07-20T03:01:39;16.10;99.90
52275;DHT22;38228;50.940;4.024;2023-07-20T03:04:07;16.10;99.90
52275;DHT22;38228;50.940;4.024;2023-07-20T03:06:35;16.10;99.90
52275;DHT22;38228;50.940;4.024;2023-07-20T03:09:02;16.10;99.90
52275;DHT22;38228;50.940;4.024;2023-07-20T03:11:28;16.00;99.90
52275;DHT22;38228;50.940;4.024;2023-07-20T03:13:53;16.00;99.90
52275;DHT22;38228;50.940;4.024;2023-07-20T03:16:20;16.00;99.90
52275;DHT22;38228;50.940;4.024;2023-07-20T03:18:46;16.00;99.90
52275;DHT22;38228;50.940;4.024;2023-07-20T03:21:12;15.90;99.90
52275;DHT22;38228;50.940;4.024;2023-07-20T03:23:38;16.00;99.90
52275;DHT22;38228;50.940;4.024;2023-07-20T03:26:04;16.30;99.90
52275;DHT22;38228;50.940;4.024;2023-07-20T03:28:30;16.30;99.90
52275;DHT22;38228;50.940;4.024;2023-07-20T03:30:56;16.40;99.90
52275;DHT22;38228;50.940;4.024;2023-07-20T03:33:27;16.40;99.90
52275;DHT22;38228;50.940;4.024;2023-07-20T03:35:53;16.20;99.90
52275;DHT22;38228;50.940;4.024;2023-07-20T03:38:19;16.10;99.90
52275;DHT22;38228;50.940;4.024;2023-07-20T03:40:55;16.00;99.90
52275;DHT22;38228;50.940;4.024;2023-07-20T03:43:26;16.00;99.90
52275;DHT22;38228;50.940;4.024;2023-07-20T03:45:52;16.00;99.90
52275;DHT22;38228;50.940;4.024;2023-07-20T03:48:19;15.90;99.90
52275;DHT22;38228;50.940;4.024;2023-07-20T03:50:46;16.00;99.90
52275;DHT22;38228;50.940;4.024;2023-07-20T03:53:12;16.10;99.90
52275;DHT22;38228;50.940;4.024;2023-07-20T03:55:38;16.10;99.90
52275;DHT22;38228;50.940;4.024;2023-07-20T03:58:06;16.20;99.90
52275;DHT22;38228;50.940;4.024;2023-07-20T04:00:32;16.20;99.90
52275;DHT22;38228;50.940;4.024;2023-07-20T04:02:58;16.20;99.90
52275;DHT22;38228;50.940;4.024;2023-07-20T04:05:24;16.30;99.90
52275;DHT22;38228;50.940;4.024;2023-07-20T04:07:51;16.40;99.90
52275;DHT22;38228;50.940;4.024;2023-07-20T04:10:17;16.30;99.90
52275;DHT22;38228;50.940;4.024;2023-07-20T04:12:44;16.40;99.90
52275;DHT22;38228;50.940;4.024;2023-07-20T04:15:10;16.40;99.90
52275;DHT22;38228;50.940;4.024;2023-07-20T04:17:36;16.40;99.90
52275;DHT22;38228;50.940;4.024;2023-07-20T04:20:02;16.60;99.90
52275;DHT22;38228;50.940;4.024;2023-07-20T04:22:28;16.70;99.90
52275;DHT22;38228;50.940;4.024;2023-07-20T04:24:54;16.80;99.90
52275;DHT22;38228;50.940;4.024;2023-07-20T04:27:20;16.90;99.90
52275;DHT22;38228;50.940;4.024;2023-07-20T04:29:46;16.90;99.90
52275;DHT22;38228;50.940;4.024;2023-07-20T04:32:11;16.80;99.90
52275;DHT22;38228;50.940;4.024;2023-07-20T04:34:37;16.80;99.90
52275;DHT22;38228;50.940;4.024;2023-07-20T04:37:04;16.80;99.90
52275;DHT22;38228;50.940;4.024;2023-07-20T04:39:30;16.90;99.90
52275;DHT22;38228;50.940;4.024;2023-07-20T04:41:56;17.00;99.90
52275;DHT22;38228;50.940;4.024;2023-07-20T04:44:22;16.90;99.90
52275;DHT22;38228;50.940;4.024;2023-07-20T04:46:48;16.60;99.90
52275;DHT22;38228;50.940;4.024;2023-07-20T04:49:14;16.50;99.90
52275;DHT22;38228;50.940;4.024;2023-07-20T04:51:39;16.50;99.90
52275;DHT22;38228;50.940;4.024;2023-07-20T04:54:05;16.70;99.90
52275;DHT22;38228;50.940;4.024;2023-07-20T04:56:31;16.70;99.90
52275;DHT22;38228;50.940;4.024;2023-07-20T04:58:56;16.80;99.90
52275;DHT22;38228;50.940;4.024;2023-07-20T05:01:23;16.70;99.90
52275;DHT22;38228;50.940;4.024;2023-07-20T05:03:49;16.80;99.90
52275;DHT22;38228;50.940;4.024;2023-07-20T05:06:15;16.90;99.90
52275;DHT22;38228;50.940;4.024;2023-07-20T05:08:41;16.90;99.90
52275;DHT22;38228;50.940;4.024;2023-07-20T05:11:06;17.00;99.90
52275;DHT22;38228;50.940;4.024;2023-07-20T05:13:35;17.00;99.90
52275;DHT22;38228;50.940;4.024;2023-07-20T05:16:01;17.00;99.90
52275;DHT22;38228;50.940;4.024;2023-07-20T05:18:27;16.80;99.90
52275;DHT22;38228;50.940;4.024;2023-07-20T05:20:53;16.70;99.90
52275;DHT22;38228;50.940;4.024;2023-07-20T05:23:20;16.60;99.90
52275;DHT22;38228;50.940;4.024;2023-07-20T05:25:47;16.80;99.90
52275;DHT22;38228;50.940;4.024;2023-07-20T05:28:13;16.90;99.90
52275;DHT22;38228;50.940;4.024;2023-07-20T05:30:39;17.00;99.90
52275;DHT22;38228;50.940;4.024;2023-07-20T05:33:05;16.90;99.90
52275;DHT22;38228;50.940;4.024;2023-07-20T05:35:31;16.90;99.90
52275;DHT22;38228;50.940;4.024;2023-07-20T05:37:56;17.10;99.90
52275;DHT22;38228;50.940;4.024;2023-07-20T05:40:22;17.30;99.90
52275;DHT22;38228;50.940;4.024;2023-07-20T05:42:48;17.20;99.90
52275;DHT22;38228;50.940;4.024;2023-07-20T05:45:17;17.20;99.90
52275;DHT22;38228;50.940;4.024;2023-07-20T05:47:43;17.20;99.90
52275;DHT22;38228;50.940;4.024;2023-07-20T05:50:10;17.10;99.90
52275;DHT22;38228;50.940;4.024;2023-07-20T05:52:36;16.70;99.90
52275;DHT22;38228;50.940;4.024;2023-07-20T05:55:03;16.90;99.90
52275;DHT22;38228;50.940;4.024;2023-07-20T05:57:29;17.10;99.90
52275;DHT22;38228;50.940;4.024;2023-07-20T05:59:55;17.10;99.90
52275;DHT22;38228;50.940;4.024;2023-07-20T06:02:21;17.20;99.90
52275;DHT22;38228;50.940;4.024;2023-07-20T06:04:47;17.30;99.90
52275;DHT22;38228;50.940;4.024;2023-07-20T06:07:12;17.40;99.90
52275;DHT22;38228;50.940;4.024;2023-07-20T06:09:38;17.50;99.90
52275;DHT22;38228;50.940;4.024;2023-07-20T06:12:04;17.40;99.90
52275;DHT22;38228;50.940;4.024;2023-07-20T06:14:30;17.40;99.90
52275;DHT22;38228;50.940;4.024;2023-07-20T06:16:55;17.70;99.90
52275;DHT22;38228;50.940;4.024;2023-07-20T06:19:21;17.60;99.90
52275;DHT22;38228;50.940;4.024;2023-07-20T06:21:48;17.80;99.90
52275;DHT22;38228;50.940;4.024;2023-07-20T06:24:16;17.50;99.90
52275;DHT22;38228;50.940;4.024;2023-07-20T06:26:42;17.80;99.90
52275;DHT22;38228;50.940;4.024;2023-07-20T06:29:07;18.20;99.90
52275;DHT22;38228;50.940;4.024;2023-07-20T06:31:35;18.60;99.90
52275;DHT22;38228;50.940;4.024;2023-07-20T06:34:01;18.60;99.90
52275;DHT22;38228;50.940;4.024;2023-07-20T06:36:28;18.50;99.90
52275;DHT22;38228;50.940;4.024;2023-07-20T06:38:54;18.80;99.90
52275;DHT22;38228;50.940;4.024;2023-07-20T06:41:20;18.30;99.90
52275;DHT22;38228;50.940;4.024;2023-07-20T06:43:46;18.30;99.90
52275;DHT22;38228;50.940;4.024;2023-07-20T06:46:12;18.50;99.90
52275;DHT22;38228;50.940;4.024;2023-07-20T06:48:38;18.60;99.90
52275;DHT22;38228;50.940;4.024;2023-07-20T06:51:03;18.60;99.90
52275;DHT22;38228;50.940;4.024;2023-07-20T06:53:30;18.60;99.90
52275;DHT22;38228;50.940;4.024;2023-07-20T06:55:56;19.00;99.90
52275;DHT22;38228;50.940;4.024;2023-07-20T06:58:24;19.30;99.90
52275;DHT22;38228;50.940;4.024;2023-07-20T07:00:51;19.40;99.90
52275;DHT22;38228;50.940;4.024;2023-07-20T07:03:17;19.40;99.90
52275;DHT22;38228;50.940;4.024;2023-07-20T07:05:43;19.60;99.90
52275;DHT22;38228;50.940;4.024;2023-07-20T07:08:10;19.50;99.90
52275;DHT22;38228;50.940;4.024;2023-07-20T07:10:36;19.60;99.90
52275;DHT22;38228;50.940;4.024;2023-07-20T07:13:02;19.90;99.90
52275;DHT22;38228;50.940;4.024;2023-07-20T07:15:28;19.80;99.90
52275;DHT22;38228;50.940;4.024;2023-07-20T07:17:54;19.60;99.90
52275;DHT22;38228;50.940;4.024;2023-07-20T07:20:20;19.10;99.90
52275;DHT22;38228;50.940;4.024;2023-07-20T07:22:47;18.80;99.90
52275;DHT22;38228;50.940;4.024;2023-07-20T07:25:13;19.20;99.90
52275;DHT22;38228;50.940;4.024;2023-07-20T07:27:39;19.70;99.90
52275;DHT22;38228;50.940;4.024;2023-07-20T07:30:06;19.60;99.90
52275;DHT22;38228;50.940;4.024;2023-07-20T07:32:32;19.80;99.90
52275;DHT22;38228;50.940;4.024;2023-07-20T07:34:57;19.70;99.90
52275;DHT22;38228;50.940;4.024;2023-07-20T07:37:26;19.60;99.90
52275;DHT22;38228;50.940;4.024;2023-07-20T07:39:52;19.60;99.90
52275;DHT22;38228;50.940;4.024;2023-07-20T07:42:17;19.90;99.90
52275;DHT22;38228;50.940;4.024;2023-07-20T07:44:44;19.80;99.90
52275;DHT22;38228;50.940;4.024;2023-07-20T07:47:10;19.70;99.90
52275;DHT22;38228;50.940;4.024;2023-07-20T07:49:36;20.00;99.90
52275;DHT22;38228;50.940;4.024;2023-07-20T07:52:01;20.20;99.90
52275;DHT22;38228;50.940;4.024;2023-07-20T07:54:28;20.00;99.90
52275;DHT22;38228;50.940;4.024;2023-07-20T07:56:54;20.00;99.90
52275;DHT22;38228;50.940;4.024;2023-07-20T07:59:19;19.80;99.90
52275;DHT22;38228;50.940;4.024;2023-07-20T08:01:45;19.70;99.90
52275;DHT22;38228;50.940;4.024;2023-07-20T08:04:11;19.80;99.90
52275;DHT22;38228;50.940;4.024;2023-07-20T08:06:37;19.40;99.90
52275;DHT22;38228;50.940;4.024;2023-07-20T08:09:03;19.40;99.90
52275;DHT22;38228;50.940;4.024;2023-07-20T08:11:32;19.70;99.90
52275;DHT22;38228;50.940;4.024;2023-07-20T08:14:02;20.00;99.90
52275;DHT22;38228;50.940;4.024;2023-07-20T08:16:28;20.60;99.90
52275;DHT22;38228;50.940;4.024;2023-07-20T08:18:54;20.90;99.90
52275;DHT22;38228;50.940;4.024;2023-07-20T08:21:20;21.30;99.90
52275;DHT22;38228;50.940;4.024;2023-07-20T08:23:45;21.50;99.90
52275;DHT22;38228;50.940;4.024;2023-07-20T08:26:11;21.50;99.90
52275;DHT22;38228;50.940;4.024;2023-07-20T08:28:37;21.50;99.90
52275;DHT22;38228;50.940;4.024;2023-07-20T08:31:05;21.30;99.90
52275;DHT22;38228;50.940;4.024;2023-07-20T08:33:31;21.10;99.90
52275;DHT22;38228;50.940;4.024;2023-07-20T08:36:00;21.00;99.90
52275;DHT22;38228;50.940;4.024;2023-07-20T08:38:26;21.00;99.90
52275;DHT22;38228;50.940;4.024;2023-07-20T08:40:53;21.20;99.90
52275;DHT22;38228;50.940;4.024;2023-07-20T08:43:21;20.90;99.90
52275;DHT22;38228;50.940;4.024;2023-07-20T08:45:48;21.10;99.90
52275;DHT22;38228;50.940;4.024;2023-07-20T08:48:16;21.60;99.90
52275;DHT22;38228;50.940;4.024;2023-07-20T08:50:45;21.50;99.90
52275;DHT22;38228;50.940;4.024;2023-07-20T08:53:12;21.70;99.90
52275;DHT22;38228;50.940;4.024;2023-07-20T08:55:39;22.00;99.90
52275;DHT22;38228;50.940;4.024;2023-07-20T08:58:08;22.10;99.90
52275;DHT22;38228;50.940;4.024;2023-07-20T09:00:34;22.10;99.90
52275;DHT22;38228;50.940;4.024;2023-07-20T09:03:02;22.30;99.90
52275;DHT22;38228;50.940;4.024;2023-07-20T09:05:29;22.00;99.90
52275;DHT22;38228;50.940;4.024;2023-07-20T09:07:55;21.80;99.90
52275;DHT22;38228;50.940;4.024;2023-07-20T09:10:24;21.80;99.90
52275;DHT22;38228;50.940;4.024;2023-07-20T09:12:50;21.60;99.90
52275;DHT22;38228;50.940;4.024;2023-07-20T09:15:16;21.20;99.90
52275;DHT22;38228;50.940;4.024;2023-07-20T09:17:47;21.00;99.90
52275;DHT22;38228;50.940;4.024;2023-07-20T09:20:15;21.20;99.90
52275;DHT22;38228;50.940;4.024;2023-07-20T09:22:42;21.60;99.90
52275;DHT22;38228;50.940;4.024;2023-07-20T09:25:12;21.60;99.90
52275;DHT22;38228;50.940;4.024;2023-07-20T09:27:47;21.90;99.90
52275;DHT22;38228;50.940;4.024;2023-07-20T09:30:16;22.40;99.90
52275;DHT22;38228;50.940;4.024;2023-07-20T09:32:44;22.60;99.90
52275;DHT22;38228;50.940;4.024;2023-07-20T09:35:14;22.80;99.90
52275;DHT22;38228;50.940;4.024;2023-07-20T09:37:45;23.10;99.90
52275;DHT22;38228;50.940;4.024;2023-07-20T09:40:15;23.20;99.90
52275;DHT22;38228;50.940;4.024;2023-07-20T09:42:42;23.10;99.90
52275;DHT22;38228;50.940;4.024;2023-07-20T09:45:09;22.80;99.90
52275;DHT22;38228;50.940;4.024;2023-07-20T09:47:36;23.00;99.90
52275;DHT22;38228;50.940;4.024;2023-07-20T09:50:06;23.00;99.90
52275;DHT22;38228;50.940;4.024;2023-07-20T09:52:38;23.10;99.90
52275;DHT22;38228;50.940;4.024;2023-07-20T09:55:09;23.20;99.90
52275;DHT22;38228;50.940;4.024;2023-07-20T09:57:35;23.20;99.90
52275;DHT22;38228;50.940;4.024;2023-07-20T10:00:06;23.60;99.90
52275;DHT22;38228;50.940;4.024;2023-07-20T10:02:45;23.60;99.90
52275;DHT22;38228;50.940;4.024;2023-07-20T10:05:15;23.70;99.90
52275;DHT22;38228;50.940;4.024;2023-07-20T10:07:48;24.10;99.90
52275;DHT22;38228;50.940;4.024;2023-07-20T10:10:15;24.40;99.90
52275;DHT22;38228;50.940;4.024;2023-07-20T10:12:43;24.00;99.90
52275;DHT22;38228;50.940;4.024;2023-07-20T10:15:30;23.90;99.90
52275;DHT22;38228;50.940;4.024;2023-07-20T10:20:26;23.80;99.90
52275;DHT22;38228;50.940;4.024;2023-07-20T10:22:53;23.90;99.90
52275;DHT22;38228;50.940;4.024;2023-07-20T10:25:22;24.60;99.90
52275;DHT22;38228;50.940;4.024;2023-07-20T10:27:48;25.10;99.90
52275;DHT22;38228;50.940;4.024;2023-07-20T10:30:14;25.30;99.90
52275;DHT22;38228;50.940;4.024;2023-07-20T10:32:41;24.90;99.90
52275;DHT22;38228;50.940;4.024;2023-07-20T10:35:15;24.70;99.90
52275;DHT22;38228;50.940;4.024;2023-07-20T10:40:38;24.60;99.90
52275;DHT22;38228;50.940;4.024;2023-07-20T10:43:19;24.80;99.90
52275;DHT22;38228;50.940;4.024;2023-07-20T10:45:50;24.50;99.90
52275;DHT22;38228;50.940;4.024;2023-07-20T10:53:35;24.00;99.90
52275;DHT22;38228;50.940;4.024;2023-07-20T10:56:11;24.00;99.90
52275;DHT22;38228;50.940;4.024;2023-07-20T10:58:37;24.10;99.90
52275;DHT22;38228;50.940;4.024;2023-07-20T11:01:06;24.30;99.90
52275;DHT22;38228;50.940;4.024;2023-07-20T11:03:37;24.30;99.90
52275;DHT22;38228;50.940;4.024;2023-07-20T11:09:09;24.40;99.90
52275;DHT22;38228;50.940;4.024;2023-07-20T11:11:43;24.20;99.90
52275;DHT22;38228;50.940;4.024;2023-07-20T11:16:49;24.30;99.90
52275;DHT22;38228;50.940;4.024;2023-07-20T11:19:25;24.40;99.90
52275;DHT22;38228;50.940;4.024;2023-07-20T11:21:53;24.80;99.90
52275;DHT22;38228;50.940;4.024;2023-07-20T11:24:19;25.40;99.90
52275;DHT22;38228;50.940;4.024;2023-07-20T11:26:50;25.20;98.90
52275;DHT22;38228;50.940;4.024;2023-07-20T11:29:17;24.90;99.90
52275;DHT22;38228;50.940;4.024;2023-07-20T11:31:44;25.10;99.50
52275;DHT22;38228;50.940;4.024;2023-07-20T11:34:14;25.10;99.80
52275;DHT22;38228;50.940;4.024;2023-07-20T11:36:41;24.90;99.90
52275;DHT22;38228;50.940;4.024;2023-07-20T11:39:12;25.10;99.90
52275;DHT22;38228;50.940;4.024;2023-07-20T11:41:38;25.50;99.90
52275;DHT22;38228;50.940;4.024;2023-07-20T11:44:06;25.50;99.90
52275;DHT22;38228;50.940;4.024;2023-07-20T11:46:33;25.50;99.90
52275;DHT22;38228;50.940;4.024;2023-07-20T11:49:00;25.70;99.90
52275;DHT22;38228;50.940;4.024;2023-07-20T11:51:28;25.70;99.90
52275;DHT22;38228;50.940;4.024;2023-07-20T11:53:55;25.70;99.90
52275;DHT22;38228;50.940;4.024;2023-07-20T11:56:26;25.50;99.90
52275;DHT22;38228;50.940;4.024;2023-07-20T11:58:55;25.00;99.90
52275;DHT22;38228;50.940;4.024;2023-07-20T12:01:23;25.00;99.90
52275;DHT22;38228;50.940;4.024;2023-07-20T12:03:49;24.90;99.90
52275;DHT22;38228;50.940;4.024;2023-07-20T12:06:15;24.80;99.90
52275;DHT22;38228;50.940;4.024;2023-07-20T12:08:42;24.90;99.90
52275;DHT22;38228;50.940;4.024;2023-07-20T12:11:08;25.30;99.90
52275;DHT22;38228;50.940;4.024;2023-07-20T12:13:43;24.70;99.90
52275;DHT22;38228;50.940;4.024;2023-07-20T12:16:14;24.50;99.90
52275;DHT22;38228;50.940;4.024;2023-07-20T12:18:42;24.20;99.90
52275;DHT22;38228;50.940;4.024;2023-07-20T12:21:09;24.00;99.90
52275;DHT22;38228;50.940;4.024;2023-07-20T12:23:36;23.70;99.90
52275;DHT22;38228;50.940;4.024;2023-07-20T12:26:02;23.30;99.90
52275;DHT22;38228;50.940;4.024;2023-07-20T12:28:29;23.10;99.90
52275;DHT22;38228;50.940;4.024;2023-07-20T12:30:55;23.00;99.90
52275;DHT22;38228;50.940;4.024;2023-07-20T12:33:24;23.00;99.90
52275;DHT22;38228;50.940;4.024;2023-07-20T12:35:50;22.80;99.90
52275;DHT22;38228;50.940;4.024;2023-07-20T12:38:16;22.50;99.90
52275;DHT22;38228;50.940;4.024;2023-07-20T12:40:42;22.40;99.90
52275;DHT22;38228;50.940;4.024;2023-07-20T12:43:08;22.10;99.90
52275;DHT22;38228;50.940;4.024;2023-07-20T12:45:34;22.30;99.90
52275;DHT22;38228;50.940;4.024;2023-07-20T12:48:00;22.00;99.90
52275;DHT22;38228;50.940;4.024;2023-07-20T12:50:27;21.80;99.90
52275;DHT22;38228;50.940;4.024;2023-07-20T12:52:52;21.40;99.90
52275;DHT22;38228;50.940;4.024;2023-07-20T12:55:19;20.80;99.90
52275;DHT22;38228;50.940;4.024;2023-07-20T12:57:46;20.30;99.90
52275;DHT22;38228;50.940;4.024;2023-07-20T13:00:13;20.00;99.90
52275;DHT22;38228;50.940;4.024;2023-07-20T13:02:39;19.70;99.90
52275;DHT22;38228;50.940;4.024;2023-07-20T13:05:05;19.50;99.90
52275;DHT22;38228;50.940;4.024;2023-07-20T13:07:32;19.30;99.90
52275;DHT22;38228;50.940;4.024;2023-07-20T13:10:01;19.30;99.90
52275;DHT22;38228;50.940;4.024;2023-07-20T13:12:28;19.50;99.90
52275;DHT22;38228;50.940;4.024;2023-07-20T13:14:55;19.70;99.90
52275;DHT22;38228;50.940;4.024;2023-07-20T13:17:22;19.90;99.90
52275;DHT22;38228;50.940;4.024;2023-07-20T13:19:48;20.30;99.90
52275;DHT22;38228;50.940;4.024;2023-07-20T13:22:14;20.50;99.90
52275;DHT22;38228;50.940;4.024;2023-07-20T13:24:45;20.80;99.90
52275;DHT22;38228;50.940;4.024;2023-07-20T13:27:15;21.30;99.90
52275;DHT22;38228;50.940;4.024;2023-07-20T13:29:40;21.60;99.90
52275;DHT22;38228;50.940;4.024;2023-07-20T13:32:07;22.00;99.90
52275;DHT22;38228;50.940;4.024;2023-07-20T13:34:33;22.10;99.90
52275;DHT22;38228;50.940;4.024;2023-07-20T13:37:00;22.30;99.90
52275;DHT22;38228;50.940;4.024;2023-07-20T13:39:26;22.90;99.90
52275;DHT22;38228;50.940;4.024;2023-07-20T13:41:55;22.90;99.90
52275;DHT22;38228;50.940;4.024;2023-07-20T13:44:21;23.50;99.90
52275;DHT22;38228;50.940;4.024;2023-07-20T13:46:48;24.00;99.90
52275;DHT22;38228;50.940;4.024;2023-07-20T13:49:14;24.40;99.90
52275;DHT22;38228;50.940;4.024;2023-07-20T13:51:41;24.80;99.90
52275;DHT22;38228;50.940;4.024;2023-07-20T13:54:07;25.20;99.90
52275;DHT22;38228;50.940;4.024;2023-07-20T13:56:33;24.90;99.90
52275;DHT22;38228;50.940;4.024;2023-07-20T13:58:58;25.60;99.90
52275;DHT22;38228;50.940;4.024;2023-07-20T14:01:24;26.00;99.90
52275;DHT22;38228;50.940;4.024;2023-07-20T14:03:50;26.00;99.90
52275;DHT22;38228;50.940;4.024;2023-07-20T14:06:17;25.90;99.90
52275;DHT22;38228;50.940;4.024;2023-07-20T14:08:43;25.70;99.90
52275;DHT22;38228;50.940;4.024;2023-07-20T14:11:12;25.30;99.90
52275;DHT22;38228;50.940;4.024;2023-07-20T14:13:38;25.10;99.90
52275;DHT22;38228;50.940;4.024;2023-07-20T14:16:04;24.60;99.90
52275;DHT22;38228;50.940;4.024;2023-07-20T14:18:30;24.10;99.90
52275;DHT22;38228;50.940;4.024;2023-07-20T14:20:56;24.00;99.90
52275;DHT22;38228;50.940;4.024;2023-07-20T14:23:22;24.20;99.90
52275;DHT22;38228;50.940;4.024;2023-07-20T14:25:48;24.30;99.90
52275;DHT22;38228;50.940;4.024;2023-07-20T14:28:14;23.90;99.90
52275;DHT22;38228;50.940;4.024;2023-07-20T14:30:41;23.90;99.90
52275;DHT22;38228;50.940;4.024;2023-07-20T14:33:06;23.80;99.90
52275;DHT22;38228;50.940;4.024;2023-07-20T14:35:33;23.20;99.90
52275;DHT22;38228;50.940;4.024;2023-07-20T14:38:00;22.90;99.90
52275;DHT22;38228;50.940;4.024;2023-07-20T14:40:26;23.00;99.90
52275;DHT22;38228;50.940;4.024;2023-07-20T14:42:51;22.60;99.90
52275;DHT22;38228;50.940;4.024;2023-07-20T14:45:18;22.70;99.90
52275;DHT22;38228;50.940;4.024;2023-07-20T14:47:44;22.80;99.90
52275;DHT22;38228;50.940;4.024;2023-07-20T14:50:11;22.80;99.90
52275;DHT22;38228;50.940;4.024;2023-07-20T14:52:37;22.60;99.90
52275;DHT22;38228;50.940;4.024;2023-07-20T14:55:03;21.10;99.90
52275;DHT22;38228;50.940;4.024;2023-07-20T14:57:30;19.80;99.90
52275;DHT22;38228;50.940;4.024;2023-07-20T14:59:55;18.80;99.90
52275;DHT22;38228;50.940;4.024;2023-07-20T15:02:21;17.90;99.90
52275;DHT22;38228;50.940;4.024;2023-07-20T15:04:51;17.30;99.90
52275;DHT22;38228;50.940;4.024;2023-07-20T15:07:18;17.00;99.90
52275;DHT22;38228;50.940;4.024;2023-07-20T15:09:45;16.90;99.90
52275;DHT22;38228;50.940;4.024;2023-07-20T15:12:11;17.00;99.90
52275;DHT22;38228;50.940;4.024;2023-07-20T15:14:40;16.90;99.90
52275;DHT22;38228;50.940;4.024;2023-07-20T15:17:10;16.90;99.90
52275;DHT22;38228;50.940;4.024;2023-07-20T15:19:36;16.90;99.90
52275;DHT22;38228;50.940;4.024;2023-07-20T15:22:02;16.70;99.90
52275;DHT22;38228;50.940;4.024;2023-07-20T15:24:29;16.80;99.90
52275;DHT22;38228;50.940;4.024;2023-07-20T15:26:55;16.80;99.90
52275;DHT22;38228;50.940;4.024;2023-07-20T15:29:23;17.00;99.90
52275;DHT22;38228;50.940;4.024;2023-07-20T15:31:52;17.10;99.90
52275;DHT22;38228;50.940;4.024;2023-07-20T15:34:17;17.20;99.90
52275;DHT22;38228;50.940;4.024;2023-07-20T15:36:43;17.30;99.90
52275;DHT22;38228;50.940;4.024;2023-07-20T15:39:09;17.30;99.90
52275;DHT22;38228;50.940;4.024;2023-07-20T15:41:34;17.40;99.90
52275;DHT22;38228;50.940;4.024;2023-07-20T15:44:00;17.50;99.90
52275;DHT22;38228;50.940;4.024;2023-07-20T15:49:07;17.90;99.90
52275;DHT22;38228;50.940;4.024;2023-07-20T15:51:35;17.90;99.90
52275;DHT22;38228;50.940;4.024;2023-07-20T15:54:12;18.10;99.90
52275;DHT22;38228;50.940;4.024;2023-07-20T15:56:39;18.30;99.90
52275;DHT22;38228;50.940;4.024;2023-07-20T15:59:07;18.30;99.90